logo
Search for airport 
image banner adimage banner adimage banner ad
image banner ad

FAGIAN - Giants Castle

Located in , South Africa

ICAO - , IATA -

Data provided by Airmate  

General information

Coordinates: S29°16'6" E29°40'30"
Elevation is 5213 feet MSL.
 
View others Airports in Kwazulu-Natal

Operational data

Special qualification required
Current time UTC:
Current local time:
Weather at : - ( 0 km )
METAR: PAKX 232135Z AUTO 22003KT 7SM CLR 18/10 A3003 RMK AO2
View NOTAMs / SUP AIP / TFR affecting this airport [VIEW]
Communications frequencies: [VIEW]

Runways:

RWY identifierQFULength (ft)Width (ft)SurfaceLDA (ft)
0268°393733SAND
20248°393733SAND

Airport contact information

Address: South Africa

Satellite view of FAGIAN